createdAt,value
2023-02-11T00:00:43.762Z,30.30
2023-02-11T00:06:01.820Z,33.90
2023-02-11T00:11:04.941Z,33.20
2023-02-11T00:16:09.679Z,26.80
2023-02-11T00:21:18.349Z,35.20
2023-02-11T00:26:24.688Z,28.40
2023-02-11T00:31:28.165Z,31.10
2023-02-11T00:36:31.485Z,31.10
2023-02-11T00:41:34.680Z,23.30
2023-02-11T00:46:37.395Z,30.40
2023-02-11T00:51:40.206Z,24.90
2023-02-11T00:56:42.829Z,25.50
2023-02-11T01:01:45.490Z,24.00
2023-02-11T01:06:48.145Z,33.30
2023-02-11T01:11:50.993Z,27.60
2023-02-11T01:16:53.612Z,35.60
2023-02-11T01:21:56.205Z,37.60
2023-02-11T01:26:58.954Z,39.10
2023-02-11T01:32:01.674Z,29.70
2023-02-11T01:37:04.413Z,39.80
2023-02-11T01:42:07.039Z,28.10
2023-02-11T01:47:09.828Z,40.10
2023-02-11T01:52:22.092Z,38.60
2023-02-11T01:57:28.896Z,41.70
2023-02-11T02:02:39.618Z,33.70
2023-02-11T02:07:49.667Z,26.90
2023-02-11T02:12:52.428Z,34.30
2023-02-11T02:18:04.294Z,31.60
2023-02-11T02:23:43.303Z,38.20
2023-02-11T02:29:01.752Z,33.20
2023-02-11T02:34:14.043Z,39.80
2023-02-11T02:39:26.206Z,29.50
2023-02-11T02:44:29.760Z,35.90
2023-02-11T02:49:32.338Z,37.30
2023-02-11T02:54:53.563Z,38.10
2023-02-11T03:00:11.403Z,30.80
2023-02-11T03:05:19.622Z,30.00
2023-02-11T03:10:27.300Z,28.90
2023-02-11T03:15:34.860Z,28.40
2023-02-11T03:20:41.512Z,33.90
2023-02-11T03:26:23.154Z,27.90
2023-02-11T03:31:47.733Z,36.40
2023-02-11T03:37:01.386Z,29.90
2023-02-11T03:42:07.413Z,34.80
2023-02-11T03:47:12.610Z,27.70
2023-02-11T03:52:18.034Z,26.20
2023-02-11T03:57:20.664Z,26.70
2023-02-11T04:02:32.494Z,25.20
2023-02-11T04:07:35.328Z,29.10
2023-02-11T04:12:37.939Z,22.60
2023-02-11T04:17:41.648Z,28.70
2023-02-11T04:22:44.256Z,29.80
2023-02-11T04:27:46.915Z,35.80
2023-02-11T04:32:49.550Z,29.00
2023-02-11T04:37:52.816Z,27.10
2023-02-11T04:42:55.346Z,28.80
2023-02-11T04:47:57.921Z,30.90
2023-02-11T04:53:00.470Z,23.60
2023-02-11T04:58:03.055Z,34.80
2023-02-11T05:03:08.089Z,35.90
2023-02-11T05:08:11.777Z,30.80
2023-02-11T05:13:14.530Z,30.30
2023-02-11T05:18:17.132Z,20.40
2023-02-11T05:23:19.678Z,31.00
2023-02-11T05:28:22.308Z,28.90
2023-02-11T05:33:25.636Z,36.40
2023-02-11T05:38:28.557Z,37.20
2023-02-11T05:43:31.688Z,27.10
2023-02-11T05:48:34.835Z,30.60
2023-02-11T05:53:37.408Z,29.40
2023-02-11T05:58:40.699Z,37.00
2023-02-11T06:03:43.258Z,36.90
2023-02-11T06:08:45.857Z,36.40
2023-02-11T06:13:48.492Z,37.30
2023-02-11T06:18:51.138Z,35.30
2023-02-11T06:23:53.725Z,32.10
2023-02-11T06:28:56.518Z,29.30
2023-02-11T06:33:59.278Z,34.40
2023-02-11T06:39:02.967Z,34.90
2023-02-11T06:44:06.102Z,41.70
2023-02-11T06:49:08.816Z,27.80
2023-02-11T06:54:13.820Z,45.80
2023-02-11T06:59:18.102Z,38.30
2023-02-11T07:04:20.750Z,44.50
2023-02-11T07:09:23.607Z,27.70
2023-02-11T07:14:26.251Z,35.50
2023-02-11T07:19:28.915Z,40.40
2023-02-11T07:24:32.009Z,36.50
2023-02-11T07:29:34.997Z,43.90
2023-02-11T07:34:37.926Z,34.40
2023-02-11T07:39:40.671Z,37.10
2023-02-11T07:44:47.985Z,39.10
2023-02-11T07:49:53.961Z,40.10
2023-02-11T07:54:59.565Z,42.20
2023-02-11T08:00:03.529Z,26.10
2023-02-11T08:05:06.723Z,32.50
2023-02-11T08:10:09.461Z,35.80
2023-02-11T08:15:12.482Z,33.20
2023-02-11T08:20:17.183Z,31.80
2023-02-11T08:25:22.952Z,35.10
2023-02-11T08:30:27.656Z,20.40
2023-02-11T08:35:31.060Z,37.10
2023-02-11T08:40:35.696Z,33.10
2023-02-11T08:45:38.333Z,35.20
2023-02-11T08:50:40.943Z,17.90
2023-02-11T08:55:51.930Z,27.30
2023-02-11T09:00:54.883Z,29.00
2023-02-11T09:05:58.652Z,24.60
2023-02-11T09:11:01.961Z,26.80
2023-02-11T09:16:05.639Z,21.50
2023-02-11T09:21:09.580Z,28.80
2023-02-11T09:26:44.534Z,27.50
2023-02-11T09:31:47.318Z,32.00
2023-02-11T09:36:49.992Z,25.60
2023-02-11T09:41:59.404Z,27.40
2023-02-11T09:47:30.958Z,30.80
2023-02-11T09:52:38.510Z,23.50
2023-02-11T09:57:41.096Z,25.30
2023-02-11T10:03:00.694Z,30.70
2023-02-11T10:08:17.046Z,28.80
2023-02-11T10:13:42.562Z,27.20
2023-02-11T10:19:05.225Z,23.30
2023-02-11T10:24:14.092Z,27.10
2023-02-11T10:29:37.928Z,23.10
2023-02-11T10:34:42.278Z,22.70
2023-02-11T10:39:44.963Z,21.00
2023-02-11T10:45:02.613Z,20.20
2023-02-11T10:50:26.206Z,20.50
2023-02-11T10:55:30.162Z,20.80
2023-02-11T11:00:40.379Z,17.70
2023-02-11T11:05:52.367Z,19.40
2023-02-11T11:11:08.169Z,20.50
2023-02-11T11:16:13.970Z,16.20
2023-02-11T11:21:19.424Z,20.10
2023-02-11T11:26:49.680Z,19.70
2023-02-11T11:32:00.773Z,21.10
2023-02-11T11:42:31.770Z,22.80
2023-02-11T11:47:56.150Z,20.50
2023-02-11T11:53:28.562Z,15.40
2023-02-11T11:58:34.092Z,15.20
2023-02-11T12:03:48.864Z,20.50
2023-02-11T12:09:12.314Z,17.50
2023-02-11T12:14:36.112Z,18.00
2023-02-11T12:19:41.380Z,16.20
2023-02-11T12:25:18.746Z,16.90
2023-02-11T12:30:37.897Z,16.80
2023-02-11T12:36:12.562Z,16.30
2023-02-11T12:41:48.086Z,18.00
2023-02-11T12:47:11.009Z,15.30
2023-02-11T12:52:20.028Z,13.70
2023-02-11T12:57:26.541Z,11.20
2023-02-11T13:02:56.961Z,14.10
2023-02-11T13:08:15.931Z,12.40
2023-02-11T13:13:25.659Z,11.70
2023-02-11T13:18:51.318Z,14.70
2023-02-11T13:24:09.801Z,11.10
2023-02-11T13:29:15.149Z,10.60
2023-02-11T13:34:43.292Z,12.30
2023-02-11T13:40:01.940Z,9.60
2023-02-11T13:45:20.999Z,7.30
2023-02-11T13:50:26.092Z,11.20
2023-02-11T13:55:30.127Z,9.90
2023-02-11T14:00:36.152Z,7.90
2023-02-11T14:06:31.340Z,10.20
2023-02-11T14:11:34.457Z,9.80
2023-02-11T14:17:09.895Z,8.10
2023-02-11T14:22:17.235Z,9.90
2023-02-11T14:27:42.182Z,7.30
2023-02-11T14:33:16.684Z,11.40
2023-02-11T14:38:35.747Z,8.60
2023-02-11T14:43:46.898Z,9.10
2023-02-11T14:48:53.857Z,12.30
2023-02-11T14:54:02.749Z,10.80
2023-02-11T14:59:17.542Z,14.20
2023-02-11T15:04:24.580Z,16.10
2023-02-11T15:09:37.293Z,12.90
2023-02-11T15:14:45.604Z,11.50
2023-02-11T15:19:55.081Z,11.40
2023-02-11T15:25:00.959Z,12.60
2023-02-11T15:30:24.761Z,11.40
2023-02-11T15:35:35.130Z,10.80
2023-02-11T15:40:37.859Z,13.70
2023-02-11T15:46:01.733Z,13.40
2023-02-11T15:51:25.292Z,13.60
2023-02-11T15:56:45.493Z,10.20
2023-02-11T16:01:49.067Z,14.10
2023-02-11T16:06:53.091Z,14.30
2023-02-11T16:11:58.876Z,14.40
2023-02-11T16:17:06.619Z,10.40
2023-02-11T16:22:15.332Z,10.00
2023-02-11T16:27:25.411Z,18.50
2023-02-11T16:32:29.711Z,10.60
2023-02-11T16:37:32.461Z,7.50
2023-02-11T16:42:35.177Z,8.20
2023-02-11T16:47:40.897Z,11.50
2023-02-11T16:52:43.573Z,12.30
2023-02-11T16:57:46.306Z,11.20
2023-02-11T17:02:49.060Z,15.80
2023-02-11T17:07:52.418Z,9.20
2023-02-11T17:12:55.297Z,12.70
2023-02-11T17:17:58.547Z,15.10
2023-02-11T17:23:01.131Z,9.20
2023-02-11T17:28:05.390Z,12.10
2023-02-11T17:33:09.497Z,8.70
2023-02-11T17:38:12.535Z,6.60
2023-02-11T17:43:15.799Z,7.30
2023-02-11T17:48:18.424Z,6.10
2023-02-11T17:53:21.070Z,5.50
2023-02-11T17:58:23.840Z,8.10
2023-02-11T18:03:26.507Z,5.00
2023-02-11T18:08:30.058Z,2.80
2023-02-11T18:13:33.062Z,2.00
2023-02-11T18:18:35.819Z,3.80
2023-02-11T18:23:38.532Z,3.60
2023-02-11T18:28:45.271Z,2.80
2023-02-11T18:33:48.949Z,3.70
2023-02-11T18:38:53.660Z,3.50
2023-02-11T18:43:59.595Z,1.60
2023-02-11T18:49:02.325Z,3.40
2023-02-11T18:54:05.069Z,3.60
2023-02-11T18:59:13.933Z,8.10
2023-02-11T19:04:19.911Z,7.70
2023-02-11T19:09:22.949Z,8.70
2023-02-11T19:14:31.415Z,6.90
2023-02-11T19:19:36.403Z,3.20
2023-02-11T19:24:40.147Z,3.30
2023-02-11T19:29:43.045Z,4.10
2023-02-11T19:34:46.831Z,1.70
2023-02-11T19:39:49.488Z,5.20
2023-02-11T19:44:52.060Z,7.60
2023-02-11T19:49:55.691Z,3.70
2023-02-11T19:54:59.376Z,3.00
2023-02-11T20:00:02.104Z,3.20
2023-02-11T20:05:05.081Z,2.90
2023-02-11T20:10:08.540Z,2.80
2023-02-11T20:15:11.339Z,3.70
2023-02-11T20:20:14.017Z,4.30
2023-02-11T20:25:16.684Z,3.90
2023-02-11T20:30:19.415Z,7.70
2023-02-11T20:35:22.431Z,2.40
2023-02-11T20:40:27.445Z,3.90
2023-02-11T20:45:30.181Z,4.50
2023-02-11T20:50:34.574Z,3.60
2023-02-11T20:55:38.681Z,4.10
2023-02-11T21:00:41.393Z,2.80
2023-02-11T21:05:44.035Z,2.70
2023-02-11T21:10:48.866Z,4.60
2023-02-11T21:15:55.816Z,3.20
2023-02-11T21:20:59.631Z,2.00
2023-02-11T21:26:02.459Z,2.70
2023-02-11T21:31:06.013Z,4.70
2023-02-11T21:36:10.508Z,3.70
2023-02-11T21:41:13.116Z,4.80
2023-02-11T21:46:16.989Z,3.60
2023-02-11T21:51:23.892Z,5.50
2023-02-11T21:56:28.182Z,3.10
2023-02-11T22:01:35.058Z,4.80
2023-02-11T22:06:37.858Z,1.90
2023-02-11T22:11:40.768Z,4.70
2023-02-11T22:16:47.600Z,5.70
2023-02-11T22:21:50.242Z,7.80
2023-02-11T22:26:53.622Z,6.20
2023-02-11T22:31:56.260Z,10.80
2023-02-11T22:37:00.061Z,8.00
2023-02-11T22:42:02.789Z,3.90
2023-02-11T22:47:05.504Z,3.00
2023-02-11T22:52:08.237Z,6.40
2023-02-11T22:57:10.809Z,4.40
2023-02-11T23:02:13.555Z,3.00
2023-02-11T23:07:16.373Z,4.30
2023-02-11T23:12:19.045Z,2.70
2023-02-11T23:17:24.310Z,4.60
2023-02-11T23:22:26.969Z,2.10
2023-02-11T23:27:29.820Z,6.70
2023-02-11T23:32:32.672Z,3.90
2023-02-11T23:37:35.599Z,3.10
2023-02-11T23:42:38.600Z,2.60
2023-02-11T23:47:42.325Z,2.50
2023-02-11T23:52:45.066Z,4.30
2023-02-11T23:57:47.758Z,4.50
